Главная страница
METAR-TAF:

METAR-TAF

Аэропорты :

Рованиеми, Финляндия

широта: 66-34N, долгота: 025-50E, высота над уровнем моря: 197 м

Текущие метеонаблюдения

Эта сводка был подготовлена 39 минут назад, в 15:50 UTC
Ветер 8 Узел от северный
Температура 16°C
Влажность 48%
Давление 1012 hPa
Видимость: 3000 м

METAR: EFRO 221550Z AUTO 36008KT 9999 3000 NSC 16/05 Q1012

Время: 19:29 (16:29 UTC)

Прогноз

Эта сводка был подготовлена 2 часа и 3 минут назад, в 14:26 UTC
Прогноз действительный с 22-го 15 UTC до 23-го 15 UTC
Ветер 10 Узел от северный
Видимость 10 км и более
Отдельные облака на высоте 4800 фута
изменения
С 23-го 02 UTC до 23-го 04 UTC
Ветер 5 Узел от восточно-северо-восточный

TAF: EFRO 221426Z 2215/2315 35010KT 9999 SCT048 BECMG 2302/2304 06005KT

Метеонаблюдения и прогнозы для более 4000 аэропортов (сводки METAR и TAF).

Имеющиеся станции представлены на карте желтыми и красными точками.

Чтобы увидеть название станции, наведите на нее мышь.

Затем щелкните, чтобы увидеть метеонаблюдения и метеопрогнозы.

Управление картой: чтобы увеличить масштаб, щелкните зеленые кнопки с черным крестиком; чтобы уменьшить масштаб, щелкните зеленую кнопку с тире; для просмотра соседних карт щелкайте зеленые стрелки.


METAR-TAF: